createdAt,value
2022-11-16T00:00:30.817Z,43.42
2022-11-16T00:03:34.792Z,40.33
2022-11-16T00:06:39.875Z,37.47
2022-11-16T00:09:42.781Z,39.90
2022-11-16T00:12:45.375Z,41.40
2022-11-16T00:15:57.903Z,43.65
2022-11-16T00:19:03.519Z,38.42
2022-11-16T00:22:06.503Z,41.60
2022-11-16T00:25:09.412Z,42.63
2022-11-16T00:28:12.708Z,40.55
2022-11-16T00:31:15.712Z,43.78
2022-11-16T00:34:19.188Z,40.33
2022-11-16T00:37:21.861Z,40.97
2022-11-16T00:40:25.022Z,41.90
2022-11-16T00:43:28.447Z,37.75
2022-11-16T00:46:31.534Z,41.20
2022-11-16T00:49:34.175Z,37.13
2022-11-16T00:52:37.172Z,41.07
2022-11-16T00:55:41.110Z,42.30
2022-11-16T00:58:44.891Z,42.62
2022-11-16T01:01:47.847Z,39.60
2022-11-16T01:04:50.747Z,39.22
2022-11-16T01:07:53.624Z,41.67
2022-11-16T01:10:56.509Z,37.90
2022-11-16T01:14:01.523Z,38.60
2022-11-16T01:17:04.826Z,41.20
2022-11-16T01:20:12.095Z,40.58
2022-11-16T01:23:15.037Z,36.77
2022-11-16T01:26:19.197Z,38.60
2022-11-16T01:29:26.868Z,37.45
2022-11-16T01:32:30.036Z,38.80
2022-11-16T01:35:32.924Z,37.85
2022-11-16T01:38:36.216Z,39.33
2022-11-16T01:41:41.425Z,40.67
2022-11-16T01:44:43.946Z,38.45
2022-11-16T01:47:47.649Z,38.92
2022-11-16T01:50:54.027Z,34.05
2022-11-16T01:53:58.784Z,35.30
2022-11-16T01:57:04.588Z,36.83
2022-11-16T02:00:11.170Z,35.45
2022-11-16T02:03:20.815Z,34.63
2022-11-16T02:06:26.890Z,36.22
2022-11-16T02:09:54.631Z,35.03
2022-11-16T02:13:00.315Z,34.47
2022-11-16T02:16:27.335Z,32.92
2022-11-16T02:19:53.301Z,35.45
2022-11-16T02:23:35.328Z,35.63
2022-11-16T02:26:51.303Z,35.83
2022-11-16T02:29:58.140Z,33.90
2022-11-16T02:33:11.642Z,37.92
2022-11-16T02:36:22.917Z,35.92
2022-11-16T02:39:29.739Z,33.33
2022-11-16T02:42:48.613Z,34.53
2022-11-16T02:45:54.390Z,37.70
2022-11-16T02:49:04.225Z,33.95
2022-11-16T02:52:09.866Z,36.55
2022-11-16T02:55:14.331Z,35.55
2022-11-16T02:58:24.243Z,35.60
2022-11-16T03:01:34.863Z,31.53
2022-11-16T03:04:51.730Z,34.25
2022-11-16T03:08:24.099Z,32.00
2022-11-16T03:11:47.107Z,30.90
2022-11-16T03:15:00.017Z,31.73
2022-11-16T03:18:03.631Z,31.57
2022-11-16T03:21:15.934Z,31.77
2022-11-16T03:24:19.025Z,31.20
2022-11-16T03:27:26.438Z,32.10
2022-11-16T03:30:36.944Z,30.70
2022-11-16T03:33:46.223Z,28.07
2022-11-16T03:36:53.623Z,29.92
2022-11-16T03:39:58.060Z,31.12
2022-11-16T03:43:03.624Z,32.15
2022-11-16T03:46:06.708Z,28.93
2022-11-16T03:49:09.520Z,29.73
2022-11-16T03:52:13.959Z,31.35
2022-11-16T03:55:18.975Z,29.95
2022-11-16T03:58:22.736Z,30.12
2022-11-16T04:01:25.399Z,30.77
2022-11-16T04:04:47.262Z,30.70
2022-11-16T04:08:28.977Z,31.15
2022-11-16T04:11:50.540Z,28.92
2022-11-16T04:15:12.002Z,30.98
2022-11-16T04:18:34.531Z,33.43
2022-11-16T04:22:00.632Z,32.10
2022-11-16T04:25:14.394Z,31.17
2022-11-16T04:28:22.565Z,36.88
2022-11-16T04:31:44.160Z,32.47
2022-11-16T04:35:05.533Z,30.13
2022-11-16T04:38:11.253Z,32.03
2022-11-16T04:41:33.968Z,29.63
2022-11-16T04:44:55.737Z,29.52
2022-11-16T04:47:58.924Z,25.83
2022-11-16T04:51:02.417Z,31.13
2022-11-16T04:54:05.497Z,23.67
2022-11-16T04:57:08.481Z,24.95
2022-11-16T05:00:11.807Z,26.27
2022-11-16T05:03:15.051Z,26.12
2022-11-16T05:06:18.102Z,28.83
2022-11-16T05:09:21.366Z,23.43
2022-11-16T05:12:26.872Z,30.48
2022-11-16T05:15:30.205Z,28.00
2022-11-16T05:18:34.846Z,32.17
2022-11-16T05:21:40.231Z,27.83
2022-11-16T05:24:44.517Z,34.10
2022-11-16T05:27:47.473Z,33.22
2022-11-16T05:30:50.163Z,33.85
2022-11-16T05:33:53.238Z,36.78
2022-11-16T05:36:56.658Z,41.57
2022-11-16T05:39:59.680Z,38.17
2022-11-16T05:43:02.694Z,37.17
2022-11-16T05:46:07.415Z,40.00
2022-11-16T05:49:12.456Z,41.22
2022-11-16T05:52:15.840Z,24.90
2022-11-16T05:55:19.190Z,29.57
2022-11-16T05:58:22.354Z,35.47
2022-11-16T06:01:26.035Z,34.30
2022-11-16T06:04:29.367Z,30.20
2022-11-16T06:07:32.228Z,31.03
2022-11-16T06:10:35.504Z,31.37
2022-11-16T06:13:38.215Z,33.83
2022-11-16T06:16:41.309Z,27.50
2022-11-16T06:19:44.478Z,26.92
2022-11-16T06:22:48.230Z,24.07
2022-11-16T06:25:57.310Z,25.37
2022-11-16T06:29:00.821Z,24.87
2022-11-16T06:32:03.799Z,23.98
2022-11-16T06:35:08.928Z,25.62
2022-11-16T06:38:18.583Z,23.97
2022-11-16T06:41:22.745Z,22.37
2022-11-16T06:44:25.588Z,21.10
2022-11-16T06:47:28.906Z,22.98
2022-11-16T06:50:31.719Z,31.30
2022-11-16T06:53:34.826Z,29.87
2022-11-16T06:56:37.862Z,30.00
2022-11-16T06:59:40.810Z,24.50
2022-11-16T07:02:43.751Z,27.85
2022-11-16T07:05:47.964Z,30.85
2022-11-16T07:08:51.821Z,28.77
2022-11-16T07:11:55.108Z,26.40
2022-11-16T07:14:59.077Z,31.90
2022-11-16T07:18:08.083Z,33.78
2022-11-16T07:21:13.991Z,38.33
2022-11-16T07:24:17.075Z,43.73
2022-11-16T07:27:19.784Z,46.50
2022-11-16T07:30:23.669Z,35.55
2022-11-16T07:33:26.597Z,37.15
2022-11-16T07:36:32.334Z,41.47
2022-11-16T07:39:35.197Z,34.67
2022-11-16T07:42:39.914Z,36.37
2022-11-16T07:45:42.798Z,31.50
2022-11-16T07:48:46.376Z,29.95
2022-11-16T07:51:50.488Z,28.40
2022-11-16T07:54:54.279Z,30.97
2022-11-16T07:57:58.792Z,30.63
2022-11-16T08:01:11.617Z,30.67
2022-11-16T08:04:17.650Z,28.05
2022-11-16T08:07:20.742Z,31.80
2022-11-16T08:10:24.826Z,33.93
2022-11-16T08:13:27.988Z,285.50
2022-11-16T08:16:33.589Z,193.30
2022-11-16T08:19:39.610Z,213.95
2022-11-16T08:22:45.513Z,108.45
2022-11-16T08:25:48.204Z,74.90
2022-11-16T08:28:53.928Z,40.07
2022-11-16T08:31:58.086Z,50.17
2022-11-16T08:35:01.168Z,91.03
2022-11-16T08:38:03.846Z,67.45
2022-11-16T08:41:07.659Z,55.47
2022-11-16T08:44:10.705Z,50.30
2022-11-16T08:47:15.025Z,37.63
2022-11-16T08:50:18.445Z,36.40
2022-11-16T08:53:21.471Z,42.30
2022-11-16T08:56:26.434Z,41.83
2022-11-16T08:59:29.672Z,45.43
2022-11-16T09:02:32.857Z,34.13
2022-11-16T09:05:35.777Z,43.40
2022-11-16T09:08:40.410Z,32.65
2022-11-16T09:11:43.434Z,40.47
2022-11-16T09:14:46.014Z,34.83
2022-11-16T09:17:49.057Z,43.28
2022-11-16T09:20:52.126Z,42.55
2022-11-16T09:23:56.176Z,37.42
2022-11-16T09:27:02.275Z,42.43
2022-11-16T09:30:05.725Z,37.43
2022-11-16T09:33:08.393Z,38.38
2022-11-16T09:36:11.415Z,35.00
2022-11-16T09:39:29.962Z,38.38
2022-11-16T09:42:33.224Z,40.50
2022-11-16T09:45:35.780Z,41.03
2022-11-16T09:48:40.287Z,31.62
2022-11-16T09:51:48.224Z,43.25
2022-11-16T09:54:53.544Z,39.55
2022-11-16T09:57:59.795Z,40.60
2022-11-16T10:01:17.160Z,39.73
2022-11-16T10:04:38.538Z,37.03
2022-11-16T10:07:48.530Z,38.65
2022-11-16T10:11:00.527Z,38.92
2022-11-16T10:14:32.208Z,52.23
2022-11-16T10:17:47.400Z,39.77
2022-11-16T10:21:08.581Z,47.08
2022-11-16T10:24:25.377Z,43.78
2022-11-16T10:27:42.779Z,39.15
2022-11-16T10:31:33.582Z,38.57
2022-11-16T10:35:12.753Z,40.93
2022-11-16T10:38:20.427Z,46.72
2022-11-16T10:41:42.799Z,38.67
2022-11-16T10:45:12.108Z,37.78
2022-11-16T10:48:30.112Z,35.43
2022-11-16T10:51:33.182Z,35.67
2022-11-16T10:54:38.877Z,38.53
2022-11-16T10:57:57.939Z,35.28
2022-11-16T11:01:00.761Z,39.67
2022-11-16T11:04:23.775Z,39.67
2022-11-16T11:07:40.193Z,45.67
2022-11-16T11:10:43.240Z,39.22
2022-11-16T11:13:45.826Z,48.70
2022-11-16T11:16:53.453Z,37.72
2022-11-16T11:20:04.577Z,32.30
2022-11-16T11:23:24.872Z,42.07
2022-11-16T11:26:34.893Z,33.05
2022-11-16T11:29:43.209Z,35.90
2022-11-16T11:32:47.273Z,35.33
2022-11-16T11:36:28.647Z,48.90
2022-11-16T11:39:37.145Z,40.00
2022-11-16T11:42:51.203Z,36.78
2022-11-16T11:46:56.141Z,38.33
2022-11-16T11:50:00.353Z,31.27
2022-11-16T11:53:23.900Z,34.77
2022-11-16T11:56:30.415Z,34.73
2022-11-16T11:59:33.033Z,35.50
2022-11-16T12:02:53.211Z,33.28
2022-11-16T12:06:22.726Z,34.72
2022-11-16T12:09:47.219Z,34.23
2022-11-16T12:12:57.868Z,36.33
2022-11-16T12:16:08.677Z,35.72
2022-11-16T12:19:19.971Z,32.97
2022-11-16T12:22:37.049Z,36.33
2022-11-16T12:26:00.946Z,33.27
2022-11-16T12:29:12.751Z,34.37
2022-11-16T12:32:15.610Z,31.85
2022-11-16T12:35:33.833Z,35.22
2022-11-16T12:38:40.888Z,35.03
2022-11-16T12:42:17.749Z,32.87
2022-11-16T12:45:41.215Z,38.13
2022-11-16T12:48:49.893Z,44.95
2022-11-16T12:51:55.650Z,36.40
2022-11-16T12:55:26.333Z,32.47
2022-11-16T12:58:56.337Z,34.23
2022-11-16T13:02:14.110Z,33.57
2022-11-16T13:05:37.841Z,38.38
2022-11-16T13:09:16.157Z,39.20
2022-11-16T13:12:23.659Z,38.38
2022-11-16T13:15:34.346Z,40.20
2022-11-16T13:18:42.873Z,33.67
2022-11-16T13:21:48.098Z,38.72
2022-11-16T13:25:13.135Z,37.65
2022-11-16T13:28:33.700Z,38.25
2022-11-16T13:31:49.511Z,53.83
2022-11-16T13:34:53.175Z,36.37
2022-11-16T13:37:56.097Z,36.17
2022-11-16T13:41:33.522Z,39.63
2022-11-16T13:44:36.516Z,35.60
2022-11-16T13:47:39.359Z,33.37
2022-11-16T13:50:48.816Z,36.13
2022-11-16T13:57:29.777Z,34.28
2022-11-16T14:00:38.758Z,36.78
2022-11-16T14:03:44.206Z,37.47
2022-11-16T14:06:46.694Z,33.70
2022-11-16T14:09:49.983Z,39.45
2022-11-16T14:12:54.532Z,34.60
2022-11-16T14:16:38.975Z,34.65
2022-11-16T14:19:52.386Z,38.60
2022-11-16T14:23:10.731Z,33.23
2022-11-16T14:26:22.142Z,37.47
2022-11-16T14:29:25.464Z,36.58
2022-11-16T14:32:43.497Z,36.63
2022-11-16T14:35:52.935Z,35.47
2022-11-16T14:38:55.606Z,34.83
2022-11-16T14:42:03.058Z,35.80
2022-11-16T14:45:12.300Z,35.97
2022-11-16T14:48:18.459Z,37.13
2022-11-16T14:51:26.189Z,54.50
2022-11-16T14:54:47.257Z,50.83
2022-11-16T14:57:49.886Z,59.45
2022-11-16T15:01:00.527Z,47.00
2022-11-16T15:04:12.475Z,35.45
2022-11-16T15:07:16.795Z,38.33
2022-11-16T15:10:26.640Z,35.80
2022-11-16T15:13:29.773Z,35.17
2022-11-16T15:16:32.423Z,34.65
2022-11-16T15:19:35.698Z,40.12
2022-11-16T15:22:41.660Z,33.67
2022-11-16T15:25:56.251Z,38.70
2022-11-16T15:28:59.906Z,37.00
2022-11-16T15:32:03.260Z,35.40
2022-11-16T15:35:06.416Z,39.67
2022-11-16T15:38:21.794Z,31.83
2022-11-16T15:41:28.161Z,37.70
2022-11-16T15:44:32.128Z,33.78
2022-11-16T15:47:36.855Z,31.02
2022-11-16T15:50:39.833Z,40.63
2022-11-16T15:53:47.824Z,62.90
2022-11-16T15:56:52.836Z,35.03
2022-11-16T15:59:59.784Z,37.15
2022-11-16T16:03:07.175Z,34.95
2022-11-16T16:06:14.587Z,38.13
2022-11-16T16:09:32.556Z,32.80
2022-11-16T16:12:49.457Z,32.37
2022-11-16T16:16:26.597Z,33.05
2022-11-16T16:19:40.661Z,32.28
2022-11-16T16:22:43.384Z,31.17
2022-11-16T16:25:50.558Z,26.97
2022-11-16T16:28:53.601Z,32.07
2022-11-16T16:31:56.696Z,30.75
2022-11-16T16:35:01.917Z,30.33
2022-11-16T16:38:14.225Z,34.17
2022-11-16T16:41:24.095Z,35.90
2022-11-16T16:44:27.311Z,33.63
2022-11-16T16:47:31.724Z,31.37
2022-11-16T16:50:34.968Z,33.30
2022-11-16T16:53:37.568Z,33.95
2022-11-16T16:56:41.242Z,33.67
2022-11-16T16:59:48.657Z,30.87
2022-11-16T17:02:51.869Z,33.03
2022-11-16T17:06:02.052Z,33.13
2022-11-16T17:09:05.071Z,29.75
2022-11-16T17:12:07.818Z,28.60
2022-11-16T17:15:15.067Z,24.93
2022-11-16T17:18:20.943Z,29.63
2022-11-16T17:21:24.320Z,32.42
2022-11-16T17:24:27.489Z,26.48
2022-11-16T17:27:32.291Z,31.27
2022-11-16T17:30:35.034Z,30.87
2022-11-16T17:33:40.182Z,32.70
2022-11-16T17:36:44.174Z,29.48
2022-11-16T17:39:47.151Z,29.30
2022-11-16T17:42:49.887Z,32.97
2022-11-16T17:45:53.230Z,30.47
2022-11-16T17:48:56.837Z,31.58
2022-11-16T17:52:00.369Z,30.83
2022-11-16T17:55:03.904Z,29.52
2022-11-16T17:58:08.003Z,31.90
2022-11-16T18:01:12.460Z,34.90
2022-11-16T18:04:15.862Z,32.55
2022-11-16T18:07:22.325Z,33.38
2022-11-16T18:10:25.896Z,37.28
2022-11-16T18:13:29.070Z,32.57
2022-11-16T18:16:33.801Z,31.53
2022-11-16T18:19:36.446Z,36.55
2022-11-16T18:22:39.360Z,37.03
2022-11-16T18:25:42.434Z,39.78
2022-11-16T18:28:46.597Z,34.50
2022-11-16T18:31:49.641Z,36.03
2022-11-16T18:34:54.143Z,36.78
2022-11-16T18:38:00.047Z,34.80
2022-11-16T18:41:12.480Z,35.47
2022-11-16T18:44:15.635Z,34.37
2022-11-16T18:47:22.335Z,30.50
2022-11-16T18:50:28.127Z,36.22
2022-11-16T18:53:33.111Z,35.03
2022-11-16T18:56:36.849Z,33.58
2022-11-16T18:59:40.344Z,31.73
2022-11-16T19:02:43.490Z,35.83
2022-11-16T19:05:50.469Z,31.87
2022-11-16T19:09:01.669Z,32.30
2022-11-16T19:12:05.145Z,41.88
2022-11-16T19:15:09.218Z,44.77
2022-11-16T19:18:21.163Z,43.07
2022-11-16T19:21:25.747Z,41.05
2022-11-16T19:24:29.206Z,36.08
2022-11-16T19:27:32.718Z,32.30
2022-11-16T19:30:36.024Z,36.43
2022-11-16T19:33:39.322Z,32.60
2022-11-16T19:36:42.711Z,39.60
2022-11-16T19:39:46.753Z,41.70
2022-11-16T19:42:50.040Z,79.40
2022-11-16T19:45:53.147Z,58.67
2022-11-16T19:48:57.479Z,46.83
2022-11-16T19:52:00.500Z,50.78
2022-11-16T19:55:04.080Z,48.38
2022-11-16T19:58:06.845Z,44.25
2022-11-16T20:01:20.365Z,43.40
2022-11-16T20:04:25.601Z,37.97
2022-11-16T20:07:28.247Z,37.10
2022-11-16T20:10:31.400Z,34.65
2022-11-16T20:13:34.992Z,33.97
2022-11-16T20:16:41.201Z,37.83
2022-11-16T20:19:43.977Z,35.90
2022-11-16T20:22:51.380Z,35.92
2022-11-16T20:25:55.900Z,36.25
2022-11-16T20:29:01.117Z,37.70
2022-11-16T20:32:04.201Z,31.67
2022-11-16T20:35:07.869Z,36.90
2022-11-16T20:38:10.607Z,33.03
2022-11-16T20:41:16.638Z,40.65
2022-11-16T20:44:22.604Z,34.92
2022-11-16T20:47:26.042Z,35.60
2022-11-16T20:50:29.099Z,36.17
2022-11-16T20:53:32.649Z,37.88
2022-11-16T20:56:36.166Z,35.13
2022-11-16T20:59:39.532Z,34.10
2022-11-16T21:02:43.369Z,35.60
2022-11-16T21:05:51.105Z,34.17
2022-11-16T21:08:54.354Z,36.83
2022-11-16T21:12:15.839Z,35.10
2022-11-16T21:15:18.380Z,30.95
2022-11-16T21:18:23.355Z,33.23
2022-11-16T21:21:28.634Z,35.63
2022-11-16T21:24:32.427Z,38.47
2022-11-16T21:27:36.626Z,38.00
2022-11-16T21:30:39.613Z,34.53
2022-11-16T21:33:44.176Z,32.97
2022-11-16T21:36:47.721Z,35.47
2022-11-16T21:39:50.242Z,33.58
2022-11-16T21:42:53.123Z,36.08
2022-11-16T21:46:03.168Z,33.65
2022-11-16T21:49:07.763Z,34.27
2022-11-16T21:52:10.237Z,32.20
2022-11-16T21:55:13.124Z,33.95
2022-11-16T21:58:15.718Z,33.70
2022-11-16T22:01:22.038Z,35.53
2022-11-16T22:04:43.781Z,34.87
2022-11-16T22:07:46.399Z,31.83
2022-11-16T22:10:53.378Z,33.42
2022-11-16T22:13:55.973Z,37.45
2022-11-16T22:16:58.858Z,34.88
2022-11-16T22:20:01.394Z,35.20
2022-11-16T22:23:04.320Z,34.43
2022-11-16T22:26:11.598Z,33.72
2022-11-16T22:29:14.512Z,37.30
2022-11-16T22:32:17.051Z,39.42
2022-11-16T22:35:19.960Z,39.10
2022-11-16T22:38:22.943Z,39.53
2022-11-16T22:41:28.104Z,35.35
2022-11-16T22:44:30.670Z,35.15
2022-11-16T22:47:35.848Z,39.03
2022-11-16T22:50:38.450Z,38.47
2022-11-16T22:53:41.692Z,33.00
2022-11-16T22:56:45.382Z,34.90
2022-11-16T22:59:48.267Z,34.83
2022-11-16T23:02:52.233Z,35.35
2022-11-16T23:05:55.224Z,37.43
2022-11-16T23:08:58.099Z,35.73
2022-11-16T23:12:19.985Z,36.80
2022-11-16T23:15:42.324Z,36.05
2022-11-16T23:18:45.347Z,33.78
2022-11-16T23:22:06.871Z,37.53
2022-11-16T23:25:30.587Z,34.23
2022-11-16T23:28:33.241Z,31.85
2022-11-16T23:31:37.401Z,35.97
2022-11-16T23:34:40.000Z,36.28
2022-11-16T23:37:53.371Z,32.00
2022-11-16T23:40:55.983Z,29.67
2022-11-16T23:43:59.950Z,35.88
2022-11-16T23:47:02.753Z,39.22
2022-11-16T23:50:07.182Z,32.45
2022-11-16T23:53:10.477Z,33.30
2022-11-16T23:56:13.479Z,33.93
2022-11-16T23:59:16.054Z,35.55
